createdAt,value
2022-09-03T00:00:16.404Z,98763.88
2022-09-03T00:04:26.771Z,98754.44
2022-09-03T00:08:50.818Z,98749.75
2022-09-03T00:12:57.673Z,98763.97
2022-09-03T00:17:11.265Z,98758.19
2022-09-03T00:21:25.091Z,98760.81
2022-09-03T00:25:39.797Z,98768.81
2022-09-03T00:30:00.209Z,98773.81
2022-09-03T00:34:09.141Z,98772.88
2022-09-03T00:38:10.750Z,98770.75
2022-09-03T00:42:53.743Z,98775.13
2022-09-03T00:47:02.046Z,98775.00
2022-09-03T00:51:18.850Z,98776.94
2022-09-03T00:55:48.260Z,98775.94
2022-09-03T00:59:56.941Z,98780.63
2022-09-03T01:04:08.158Z,98779.47
2022-09-03T01:08:33.292Z,98773.28
2022-09-03T01:12:52.220Z,98766.91
2022-09-03T01:17:09.402Z,98761.41
2022-09-03T01:21:36.601Z,98770.66
2022-09-03T01:25:58.084Z,98751.81
2022-09-03T01:30:10.938Z,98753.31
2022-09-03T01:34:26.675Z,98759.69
2022-09-03T01:38:47.918Z,98761.66
2022-09-03T01:43:20.526Z,98750.44
2022-09-03T01:47:32.009Z,98752.13
2022-09-03T01:51:33.998Z,98754.19
2022-09-03T01:56:13.288Z,98757.28
2022-09-03T02:00:22.973Z,98760.38
2022-09-03T02:04:26.585Z,98767.88
2022-09-03T02:08:28.314Z,98776.97
2022-09-03T02:12:33.689Z,98767.34
2022-09-03T02:16:35.384Z,98766.06
2022-09-03T02:20:37.531Z,98776.97
2022-09-03T02:24:39.347Z,98770.88
2022-09-03T02:28:41.057Z,98773.06
2022-09-03T02:32:42.555Z,98775.63
2022-09-03T02:36:46.761Z,98773.25
2022-09-03T02:40:48.688Z,98773.91
2022-09-03T02:45:23.450Z,98776.59
2022-09-03T02:49:24.933Z,98781.34
2022-09-03T02:53:28.869Z,98776.44
2022-09-03T02:57:30.714Z,98774.94
2022-09-03T03:01:32.561Z,98772.31
2022-09-03T03:05:46.715Z,98768.84
2022-09-03T03:09:48.205Z,98774.22
2022-09-03T03:13:49.596Z,98771.13
2022-09-03T03:17:51.148Z,98765.09
2022-09-03T03:21:52.584Z,98774.66
2022-09-03T03:25:54.018Z,98775.88
2022-09-03T03:29:55.742Z,98769.00
2022-09-03T03:33:59.814Z,98780.25
2022-09-03T03:38:01.360Z,98791.34
2022-09-03T03:42:03.094Z,98782.50
2022-09-03T03:46:05.397Z,98785.69
2022-09-03T03:50:07.026Z,98783.69
2022-09-03T03:54:08.954Z,98779.81
2022-09-03T03:58:10.378Z,98779.72
2022-09-03T04:02:13.095Z,98788.25
2022-09-03T04:06:18.391Z,98793.84
2022-09-03T04:10:19.950Z,98789.50
2022-09-03T04:14:22.234Z,98783.34
2022-09-03T04:18:24.043Z,98777.94
2022-09-03T04:22:25.583Z,98779.47
2022-09-03T04:26:32.426Z,98783.41
2022-09-03T04:30:33.927Z,98785.31
2022-09-03T04:34:35.618Z,98783.63
2022-09-03T04:38:39.370Z,98785.38
2022-09-03T04:42:40.885Z,98794.97
2022-09-03T04:46:42.624Z,98793.31
2022-09-03T04:50:44.051Z,98792.31
2022-09-03T04:54:45.443Z,98797.69
2022-09-03T04:58:50.975Z,98796.78
2022-09-03T05:02:52.949Z,98796.50
2022-09-03T05:06:54.441Z,98785.78
2022-09-03T05:11:00.637Z,98788.25
2022-09-03T05:15:02.493Z,98793.47
2022-09-03T05:19:08.332Z,98792.13
2022-09-03T05:23:10.254Z,98789.38
2022-09-03T05:27:11.714Z,98807.59
2022-09-03T05:31:18.742Z,98802.19
2022-09-03T05:35:25.376Z,98801.19
2022-09-03T05:39:27.464Z,98793.88
2022-09-03T05:43:29.834Z,98789.22
2022-09-03T05:47:31.276Z,98784.25
2022-09-03T05:51:34.308Z,98799.00
2022-09-03T05:55:36.100Z,98792.91
2022-09-03T05:59:37.508Z,98798.00
2022-09-03T06:03:40.056Z,98795.25
2022-09-03T06:07:42.817Z,98804.63
2022-09-03T06:11:46.170Z,98813.41
2022-09-03T06:15:47.701Z,98821.09
2022-09-03T06:19:50.100Z,98822.69
2022-09-03T06:23:56.624Z,98820.69
2022-09-03T06:28:02.208Z,98816.81
2022-09-03T06:32:05.056Z,98816.41
2022-09-03T06:36:10.668Z,98817.66
2022-09-03T06:40:20.801Z,98827.28
2022-09-03T06:44:23.825Z,98820.34
2022-09-03T06:48:31.690Z,98818.09
2022-09-03T06:52:34.436Z,98817.66
2022-09-03T06:56:40.176Z,98823.28
2022-09-03T07:00:43.119Z,98818.63
2022-09-03T07:04:44.948Z,98818.63
2022-09-03T07:08:51.233Z,98819.53
2022-09-03T07:12:55.910Z,98825.03
2022-09-03T07:16:57.337Z,98820.28
2022-09-03T07:21:05.246Z,98823.84
2022-09-03T07:25:07.351Z,98829.25
2022-09-03T07:29:08.825Z,98826.97
2022-09-03T07:33:10.617Z,98826.47
2022-09-03T07:37:12.042Z,98825.19
2022-09-03T07:41:21.441Z,98833.00
2022-09-03T07:45:35.972Z,98836.25
2022-09-03T07:49:40.526Z,98829.78
2022-09-03T07:53:42.427Z,98834.16
2022-09-03T07:57:46.112Z,98841.47
2022-09-03T08:01:54.033Z,98840.13
2022-09-03T08:06:01.846Z,98840.69
2022-09-03T08:10:09.678Z,98847.19
2022-09-03T08:18:40.837Z,98854.69
2022-09-03T08:22:51.467Z,98856.34
2022-09-03T08:26:55.921Z,98865.00
2022-09-03T08:31:00.448Z,98862.16
2022-09-03T08:35:02.114Z,98872.69
2022-09-03T08:39:09.543Z,98873.38
2022-09-03T08:43:21.927Z,98874.22
2022-09-03T08:47:41.991Z,98876.97
2022-09-03T08:51:51.568Z,98878.84
2022-09-03T08:56:02.878Z,98879.81
2022-09-03T09:00:06.561Z,98885.09
2022-09-03T09:04:54.009Z,98887.00
2022-09-03T09:09:16.878Z,98899.09
2022-09-03T09:13:48.847Z,98895.09
2022-09-03T09:18:12.269Z,98891.41
2022-09-03T09:22:31.146Z,98894.53
2022-09-03T09:26:33.947Z,98895.03
2022-09-03T09:30:36.007Z,98902.47
2022-09-03T09:34:41.212Z,98895.22
2022-09-03T09:38:43.836Z,98899.97
2022-09-03T09:42:45.393Z,98891.19
2022-09-03T09:46:50.258Z,98893.22
2022-09-03T09:51:11.714Z,98895.00
2022-09-03T09:55:19.433Z,98898.59
2022-09-03T09:59:21.134Z,98902.75
2022-09-03T10:03:22.518Z,98896.72
2022-09-03T10:07:32.901Z,98895.91
2022-09-03T10:11:39.785Z,98891.91
2022-09-03T10:16:00.240Z,98896.88
2022-09-03T10:20:31.328Z,98886.16
2022-09-03T10:24:48.690Z,98870.75
2022-09-03T10:28:56.075Z,98869.06
2022-09-03T10:33:15.649Z,98863.28
2022-09-03T10:37:25.933Z,98860.16
2022-09-03T10:41:47.511Z,98858.31
2022-09-03T10:45:58.748Z,98868.25
2022-09-03T10:50:16.209Z,98871.69
2022-09-03T10:54:17.840Z,98869.78
2022-09-03T10:58:38.081Z,98863.28
2022-09-03T11:03:28.597Z,98863.66
2022-09-03T11:07:50.518Z,98859.97
2022-09-03T11:11:55.662Z,98859.03
2022-09-03T11:16:20.405Z,98851.72
2022-09-03T11:20:25.417Z,98853.63
2022-09-03T11:24:33.085Z,98847.78
2022-09-03T11:28:59.871Z,98853.00
2022-09-03T11:33:09.474Z,98851.53
2022-09-03T11:37:22.040Z,98841.69
2022-09-03T11:41:36.095Z,98845.81
2022-09-03T11:45:39.423Z,98833.47
2022-09-03T11:49:47.470Z,98831.97
2022-09-03T11:53:59.402Z,98828.25
2022-09-03T11:58:25.224Z,98830.41
2022-09-03T12:02:30.891Z,98829.38
2022-09-03T12:06:43.243Z,98828.28
2022-09-03T12:10:59.319Z,98832.84
2022-09-03T12:15:19.550Z,98831.78
2022-09-03T12:19:32.592Z,98841.84
2022-09-03T12:23:45.963Z,98831.41
2022-09-03T12:27:49.619Z,98851.88
2022-09-03T12:31:52.542Z,98851.53
2022-09-03T12:36:02.233Z,98841.91
2022-09-03T12:40:07.409Z,98857.22
2022-09-03T12:44:12.471Z,98864.34
2022-09-03T12:48:19.715Z,98870.53
2022-09-03T12:52:32.941Z,98896.28
2022-09-03T12:56:35.364Z,98911.38
2022-09-03T13:00:43.385Z,98922.78
2022-09-03T13:04:46.241Z,98921.53
2022-09-03T13:08:51.512Z,98913.25
2022-09-03T13:12:59.762Z,98916.78
2022-09-03T13:17:35.705Z,98919.88
2022-09-03T13:22:14.881Z,98917.19
2022-09-03T13:26:42.800Z,98920.91
2022-09-03T13:31:10.826Z,98916.28
2022-09-03T13:35:23.532Z,98912.69
2022-09-03T13:39:52.558Z,98910.91
2022-09-03T13:44:03.315Z,98919.88
2022-09-03T13:48:28.684Z,98916.25
2022-09-03T13:52:57.571Z,98916.88
2022-09-03T13:57:17.208Z,98913.88
2022-09-03T14:01:26.076Z,98908.31
2022-09-03T14:05:50.890Z,98915.63
2022-09-03T14:10:23.912Z,98919.06
2022-09-03T14:14:31.461Z,98915.00
2022-09-03T14:18:51.685Z,98905.84
2022-09-03T14:23:07.498Z,98911.69
2022-09-03T14:27:09.335Z,98921.03
2022-09-03T14:31:19.320Z,98928.66
2022-09-03T14:35:29.519Z,98923.19
2022-09-03T14:39:53.203Z,98922.63
2022-09-03T14:44:20.756Z,98927.31
2022-09-03T14:48:50.169Z,98932.50
2022-09-03T14:53:13.080Z,98929.78
2022-09-03T14:57:31.697Z,98935.91
2022-09-03T15:01:38.934Z,98922.91
2022-09-03T15:06:05.905Z,98931.16
2022-09-03T15:10:28.826Z,98925.28
2022-09-03T15:14:40.108Z,98932.41
2022-09-03T15:19:02.978Z,98929.94
2022-09-03T15:23:24.287Z,98937.22
2022-09-03T15:27:40.910Z,98940.25
2022-09-03T15:32:06.886Z,98945.47
2022-09-03T15:36:13.450Z,98936.06
2022-09-03T15:40:46.178Z,98941.56
2022-09-03T15:44:52.536Z,98939.66
2022-09-03T15:49:02.716Z,98948.66
2022-09-03T15:53:04.850Z,98949.34
2022-09-03T15:57:26.677Z,98951.28
2022-09-03T16:01:59.860Z,98947.28
2022-09-03T16:06:07.093Z,98954.56
2022-09-03T16:10:25.975Z,98947.38
2022-09-03T16:14:35.682Z,98948.00
2022-09-03T16:18:46.720Z,98945.44
2022-09-03T16:23:05.639Z,98938.25
2022-09-03T16:27:17.779Z,98933.94
2022-09-03T16:31:33.030Z,98948.31
2022-09-03T16:35:46.432Z,98931.00
2022-09-03T16:40:06.722Z,98930.19
2022-09-03T16:44:45.973Z,98928.31
2022-09-03T16:49:11.731Z,98926.19
2022-09-03T16:53:32.325Z,98913.63
2022-09-03T16:57:45.850Z,98925.47
2022-09-03T17:02:40.614Z,98929.06
2022-09-03T17:07:08.723Z,98937.88
2022-09-03T17:11:40.459Z,98936.69
2022-09-03T17:15:48.136Z,98934.91
2022-09-03T17:20:11.533Z,98944.66
2022-09-03T17:24:36.079Z,98952.22
2022-09-03T17:28:49.555Z,98957.72
2022-09-03T17:33:06.633Z,98952.78
2022-09-03T17:37:24.377Z,98958.13
2022-09-03T17:41:41.129Z,98962.63
2022-09-03T17:45:48.274Z,98961.09
2022-09-03T17:49:58.245Z,98963.91
2022-09-03T17:54:18.665Z,98966.72
2022-09-03T17:58:32.626Z,98969.38
2022-09-03T18:03:06.489Z,98972.41
2022-09-03T18:07:29.645Z,98974.00
2022-09-03T18:11:39.063Z,98972.38
2022-09-03T18:15:52.632Z,98982.97
2022-09-03T18:20:20.422Z,98992.09
2022-09-03T18:25:02.429Z,98996.59
2022-09-03T18:29:54.426Z,99005.03
2022-09-03T18:34:14.636Z,99018.63
2022-09-03T18:38:51.495Z,99012.09
2022-09-03T18:43:35.945Z,99026.34
2022-09-03T18:48:20.264Z,99020.38
2022-09-03T18:52:56.068Z,99021.66
2022-09-03T18:57:17.197Z,99030.97
2022-09-03T19:01:56.695Z,99033.81
2022-09-03T19:06:37.069Z,99038.50
2022-09-03T19:11:03.396Z,99059.16
2022-09-03T19:15:38.980Z,99062.19
2022-09-03T19:20:31.233Z,99061.78
2022-09-03T19:24:51.713Z,99059.75
2022-09-03T19:29:21.412Z,99067.25
2022-09-03T19:33:56.801Z,99076.16
2022-09-03T19:38:29.657Z,99073.53
2022-09-03T19:43:19.279Z,99086.97
2022-09-03T19:48:03.063Z,99083.50
2022-09-03T19:52:44.829Z,99085.56
2022-09-03T19:57:06.798Z,99086.09
2022-09-03T20:01:28.468Z,99080.34
2022-09-03T20:05:48.914Z,99090.03
2022-09-03T20:10:12.190Z,99083.56
2022-09-03T20:14:16.029Z,99093.97
2022-09-03T20:18:30.336Z,99086.84
2022-09-03T20:22:36.664Z,99098.34
2022-09-03T20:27:04.121Z,99094.94
2022-09-03T20:31:40.089Z,99102.28
2022-09-03T20:35:56.650Z,99101.50
2022-09-03T20:40:08.138Z,99113.13
2022-09-03T20:44:37.899Z,99122.13
2022-09-03T20:48:50.542Z,99118.97
2022-09-03T20:53:02.064Z,99121.69
2022-09-03T20:57:18.285Z,99116.91
2022-09-03T21:01:57.263Z,99124.94
2022-09-03T21:06:15.855Z,99126.97
2022-09-03T21:10:42.177Z,99135.94
2022-09-03T21:14:51.576Z,99144.22
2022-09-03T21:19:03.685Z,99150.59
2022-09-03T21:23:21.244Z,99146.44
2022-09-03T21:27:49.988Z,99149.13
2022-09-03T21:32:14.477Z,99141.41
2022-09-03T21:36:36.706Z,99148.53
2022-09-03T21:40:46.772Z,99139.09
2022-09-03T21:45:08.108Z,99150.66
2022-09-03T21:49:15.384Z,99149.22
2022-09-03T21:53:47.293Z,99146.72
2022-09-03T21:58:00.234Z,99151.25
2022-09-03T22:02:16.683Z,99155.63
2022-09-03T22:06:26.336Z,99152.31
2022-09-03T22:10:39.351Z,99159.38
2022-09-03T22:14:51.426Z,99155.16
2022-09-03T22:18:54.244Z,99161.31
2022-09-03T22:23:03.745Z,99167.50
2022-09-03T22:27:38.708Z,99168.69
2022-09-03T22:32:25.159Z,99179.34
2022-09-03T22:36:37.389Z,99183.78
2022-09-03T22:40:57.938Z,99185.59
2022-09-03T22:44:59.429Z,99191.94
2022-09-03T22:49:13.177Z,99194.81
2022-09-03T22:53:51.582Z,99199.22
2022-09-03T22:58:02.589Z,99201.03
2022-09-03T23:02:20.829Z,99202.94
2022-09-03T23:06:41.482Z,99206.44
2022-09-03T23:10:54.024Z,99212.75
2022-09-03T23:15:00.851Z,99215.50
2022-09-03T23:23:29.861Z,99210.28
2022-09-03T23:28:02.993Z,99214.66
2022-09-03T23:36:57.923Z,99212.13
2022-09-03T23:41:04.032Z,99218.16
2022-09-03T23:45:33.584Z,99223.34
2022-09-03T23:49:43.738Z,99233.09
2022-09-03T23:54:00.908Z,99236.69
2022-09-03T23:58:12.973Z,99235.88
